Metar Aviation Weather Data     EGJJ Jersey Airport
Temperature
8°C Temperature
8°C Dewpoint
100% Humidity



Wind
7 MPH
11 KM/H
3 M/S
6 KTS



250°
WSW
Current Conditions

Partly Cloudy Partly Cloudy
Pressure 1021 (hPa) - 30.15 (inHg)
Visibility 6 (mile) - 9.7 (km)
Airport
Airport-code EGJJ

Location: Jersey Airport
Distance: 14 (mi)

Metar:
EGJJ 280550Z 25006KT 9999 6000NE FEW000 SCT003 BKN008 08/08 Q1021

Time: 28-02-2024 05:50 GMT